Time;durP1;ratioP1;P1;durP2;ratioP2;P2;SDS_P1;SDS_P2;PMS_P1;PMS_P2;Temp;Humidity;BMP_temperature;BMP_pressure;BME280_temperature;BME280_humidity;BME280_pressure;Samples;Min_cycle;Max_cycle;Signal;HPM_P1;HPM_P2
2022/12/03 00:02:03;;;;;;;19.38;9.93;;;5.70;99.90;;;;;;5034079;28;20045;-74
2022/12/03 00:04:29;;;;;;;18.92;8.40;;;5.80;99.90;;;;;;5035485;28;20061;-74
2022/12/03 00:06:54;;;;;;;18.95;9.15;;;5.80;99.90;;;;;;5035126;28;20037;-74
2022/12/03 00:09:20;;;;;;;20.67;8.75;;;5.80;99.90;;;;;;5031875;28;20034;-74
2022/12/03 00:11:45;;;;;;;17.73;9.50;;;5.80;99.90;;;;;;5033029;28;20053;-74
2022/12/03 00:14:11;;;;;;;17.15;8.70;;;5.80;99.90;;;;;;5032823;28;20519;-74
2022/12/03 00:16:37;;;;;;;18.50;8.82;;;5.90;99.90;;;;;;5042882;28;20094;-74
2022/12/03 00:19:02;;;;;;;18.75;8.38;;;5.80;99.90;;;;;;5030161;28;20032;-74
2022/12/03 00:21:28;;;;;;;17.13;8.05;;;5.80;99.90;;;;;;5037061;28;20029;-75
2022/12/03 00:23:53;;;;;;;17.90;8.63;;;5.80;99.90;;;;;;5034689;28;20078;-75
2022/12/03 00:26:19;;;;;;;19.40;7.95;;;5.90;99.90;;;;;;5036630;28;20059;-74
2022/12/03 00:28:45;;;;;;;18.48;7.90;;;5.90;99.90;;;;;;5035615;28;20029;-74
2022/12/03 00:31:10;;;;;;;14.88;8.15;;;5.90;99.90;;;;;;5037288;28;20383;-75
2022/12/03 00:33:36;;;;;;;17.75;7.70;;;5.90;99.90;;;;;;5032343;28;20030;-74
2022/12/03 00:36:01;;;;;;;15.50;7.97;;;5.90;99.90;;;;;;5040285;28;20057;-74
2022/12/03 00:38:27;;;;;;;16.50;7.43;;;5.90;99.90;;;;;;5042643;28;20025;-74
2022/12/03 00:40:52;;;;;;;15.80;7.20;;;5.90;99.90;;;;;;5048638;28;20189;-74
2022/12/03 00:43:18;;;;;;;17.40;8.18;;;6.00;99.90;;;;;;5048649;28;20043;-74
2022/12/03 00:45:43;;;;;;;17.55;7.80;;;6.00;99.90;;;;;;5061913;28;20054;-74
2022/12/03 00:48:09;;;;;;;15.85;7.53;;;6.00;99.90;;;;;;5057838;28;20033;-74
2022/12/03 00:50:35;;;;;;;13.95;7.15;;;6.00;99.90;;;;;;5030743;28;20038;-75
2022/12/03 00:53:00;;;;;;;14.73;7.63;;;6.00;99.90;;;;;;5030463;28;20503;-74
2022/12/03 00:55:26;;;;;;;16.15;8.18;;;6.10;99.90;;;;;;5037510;28;20059;-75
2022/12/03 00:57:51;;;;;;;18.88;8.90;;;6.10;99.90;;;;;;5049064;28;20119;-75
2022/12/03 01:00:17;;;;;;;19.52;8.65;;;6.10;99.90;;;;;;5042205;28;20082;-75
2022/12/03 01:02:43;;;;;;;25.65;10.70;;;6.10;99.90;;;;;;5039197;28;20120;-74
2022/12/03 01:05:08;;;;;;;20.40;9.77;;;6.10;99.90;;;;;;5038682;28;20491;-75
2022/12/03 01:07:35;;;;;;;20.77;9.48;;;6.20;99.90;;;;;;5039561;28;20028;-74
2022/12/03 01:10:02;;;;;;;23.90;10.65;;;6.20;99.90;;;;;;5032990;28;20033;-74
2022/12/03 01:12:27;;;;;;;22.80;11.20;;;6.30;99.90;;;;;;5039719;28;20025;-74
2022/12/03 01:14:53;;;;;;;24.55;10.95;;;6.20;99.90;;;;;;5041342;28;20091;-74
2022/12/03 01:17:18;;;;;;;25.40;11.00;;;6.30;99.90;;;;;;5051107;28;20068;-75
2022/12/03 01:19:44;;;;;;;23.42;11.35;;;6.30;99.90;;;;;;5041896;28;20086;-74
2022/12/03 01:22:10;;;;;;;26.08;11.70;;;6.30;99.90;;;;;;5053423;28;20035;-75
2022/12/03 01:24:35;;;;;;;26.10;11.45;;;6.30;99.90;;;;;;5036946;28;20060;-74
2022/12/03 01:27:01;;;;;;;21.67;11.73;;;6.30;99.90;;;;;;5046428;28;20025;-74
2022/12/03 01:29:26;;;;;;;25.83;12.30;;;6.30;99.90;;;;;;5038386;28;20124;-74
2022/12/03 01:34:36;;;;;;;27.52;12.25;;;6.30;99.90;;;;;;5042032;28;20042;-74
2022/12/03 01:37:02;;;;;;;27.23;12.15;;;6.30;99.90;;;;;;5039431;28;20402;-74
2022/12/03 01:39:28;;;;;;;25.27;12.73;;;6.40;99.90;;;;;;5043964;28;20083;-75
2022/12/03 01:41:54;;;;;;;27.77;13.38;;;6.40;99.90;;;;;;5045275;28;20024;-74
2022/12/03 01:44:26;;;;;;;27.35;12.73;;;6.40;99.90;;;;;;5046088;28;20121;-75
2022/12/03 01:46:54;;;;;;;28.55;14.48;;;6.40;99.90;;;;;;5037344;28;20117;-75
2022/12/03 01:49:24;;;;;;;28.17;13.45;;;6.40;99.90;;;;;;5036571;28;20634;-74
2022/12/03 01:51:51;;;;;;;25.90;12.27;;;6.30;99.90;;;;;;5040203;28;20747;-74
2022/12/03 01:54:24;;;;;;;26.58;13.45;;;6.30;99.90;;;;;;5037471;28;20115;-74
2022/12/03 01:56:50;;;;;;;29.65;14.13;;;6.30;99.90;;;;;;5039750;28;20028;-74
2022/12/03 01:59:18;;;;;;;27.38;12.70;;;6.40;99.90;;;;;;5036294;28;20037;-74
2022/12/03 02:01:44;;;;;;;26.85;12.98;;;6.40;99.90;;;;;;5043606;28;20059;-74
2022/12/03 02:04:13;;;;;;;28.92;13.77;;;6.40;99.90;;;;;;5037587;28;20163;-74
2022/12/03 02:06:39;;;;;;;27.48;13.02;;;6.30;99.90;;;;;;5037347;28;20116;-74
2022/12/03 02:09:07;;;;;;;26.83;12.82;;;6.30;99.90;;;;;;5036849;28;20083;-74
2022/12/03 02:11:37;;;;;;;30.60;13.90;;;6.40;99.90;;;;;;5040639;28;20029;-75
2022/12/03 02:14:06;;;;;;;27.98;13.82;;;6.40;99.90;;;;;;5039864;28;20040;-75
2022/12/03 02:16:34;;;;;;;34.85;14.70;;;6.40;99.90;;;;;;5036270;28;20036;-75
2022/12/03 02:19:00;;;;;;;29.23;14.13;;;6.40;99.90;;;;;;5040604;28;20043;-75
2022/12/03 02:21:44;;;;;;;30.52;14.98;;;6.50;99.90;;;;;;5035387;28;20034;-75
2022/12/03 02:24:31;;;;;;;29.17;13.68;;;6.40;99.90;;;;;;5052320;28;20047;-75
2022/12/03 02:26:57;;;;;;;29.13;15.00;;;6.50;99.90;;;;;;5037610;28;20498;-75
2022/12/03 02:29:23;;;;;;;31.90;14.70;;;6.50;99.90;;;;;;5036567;28;20044;-74
2022/12/03 02:31:48;;;;;;;37.22;14.57;;;6.50;99.90;;;;;;5042191;28;20044;-75
2022/12/03 02:34:43;;;;;;;27.33;14.38;;;6.50;99.90;;;;;;5047883;28;20045;-75
2022/12/03 02:37:16;;;;;;;29.55;15.05;;;6.50;99.90;;;;;;5035679;28;20059;-74
2022/12/03 02:39:46;;;;;;;23.75;12.80;;;6.50;99.90;;;;;;5028443;28;20038;-74
2022/12/03 02:45:00;;;;;;;26.05;14.27;;;6.60;99.90;;;;;;5042484;28;20194;-74
2022/12/03 02:47:27;;;;;;;;;;;6.60;99.90;;;;;;5043549;28;20041;-74
2022/12/03 02:49:52;;;;;;;27.30;14.02;;;6.60;99.90;;;;;;5048660;28;19912;-74
2022/12/03 02:52:18;;;;;;;25.42;12.45;;;6.60;99.90;;;;;;5040681;28;20079;-74
2022/12/03 02:54:44;;;;;;;24.40;12.23;;;6.60;99.90;;;;;;5040968;28;20036;-75
2022/12/03 02:57:10;;;;;;;26.33;12.98;;;6.60;99.90;;;;;;5030576;28;20117;-74
2022/12/03 02:59:36;;;;;;;23.95;11.85;;;6.60;99.90;;;;;;5049719;28;20744;-74
2022/12/03 03:02:01;;;;;;;27.90;13.18;;;6.60;99.90;;;;;;5038097;28;20026;-74
2022/12/03 03:04:27;;;;;;;25.45;12.05;;;6.60;99.90;;;;;;5040142;28;20040;-74
2022/12/03 03:06:53;;;;;;;26.85;12.77;;;6.60;99.90;;;;;;5039865;28;20842;-74
2022/12/03 03:09:19;;;;;;;21.95;10.93;;;6.60;99.90;;;;;;5040572;28;20064;-74
2022/12/03 03:11:45;;;;;;;22.48;11.65;;;6.60;99.90;;;;;;5038668;28;20036;-75
2022/12/03 03:14:11;;;;;;;22.95;11.25;;;6.60;99.90;;;;;;5046121;28;20048;-74
2022/12/03 03:16:37;;;;;;;23.52;12.50;;;6.60;99.90;;;;;;5036488;28;20029;-74
2022/12/03 03:19:02;;;;;;;26.40;11.88;;;6.60;99.90;;;;;;5036163;28;20066;-75
2022/12/03 03:21:28;;;;;;;26.10;11.93;;;6.60;99.90;;;;;;5031651;28;20044;-75
2022/12/03 03:23:53;;;;;;;24.70;12.18;;;6.50;99.90;;;;;;5038895;28;20136;-74
2022/12/03 03:26:19;;;;;;;25.20;12.07;;;6.50;99.90;;;;;;5045403;28;20555;-74
2022/12/03 03:28:50;;;;;;;24.17;11.45;;;6.50;99.90;;;;;;5054531;28;20028;-75
2022/12/03 03:31:20;;;;;;;26.40;13.57;;;6.50;99.90;;;;;;5068125;28;20044;-75
2022/12/03 03:33:46;;;;;;;;;;;6.50;99.90;;;;;;5044953;28;20035;-73
2022/12/03 03:36:14;;;;;;;23.23;11.15;;;6.50;99.90;;;;;;5037992;28;19924;-74
2022/12/03 03:38:40;;;;;;;25.98;12.43;;;6.50;99.90;;;;;;5042738;28;20397;-74
2022/12/03 03:41:08;;;;;;;28.48;12.70;;;6.50;99.90;;;;;;5052362;28;20032;-74
2022/12/03 03:43:35;;;;;;;27.42;12.60;;;6.50;99.90;;;;;;5044059;28;20025;-74
2022/12/03 03:46:03;;;;;;;24.48;12.73;;;6.40;99.90;;;;;;5047383;28;20035;-74
2022/12/03 03:48:29;;;;;;;27.00;13.30;;;6.40;99.90;;;;;;5035273;28;20061;-74
2022/12/03 03:50:55;;;;;;;27.63;12.90;;;6.40;99.90;;;;;;5037846;28;20090;-74
2022/12/03 03:53:23;;;;;;;26.55;13.15;;;6.40;99.90;;;;;;5044409;28;20037;-74
2022/12/03 03:55:49;;;;;;;25.55;13.02;;;6.40;99.90;;;;;;5034787;28;20064;-74
2022/12/03 03:58:14;;;;;;;26.15;12.75;;;6.40;99.90;;;;;;5048566;28;20479;-74
2022/12/03 04:00:45;;;;;;;25.48;13.02;;;6.40;99.90;;;;;;5038741;28;20111;-74
2022/12/03 04:03:12;;;;;;;27.00;12.70;;;6.50;99.90;;;;;;5034891;28;20039;-74
2022/12/03 04:05:38;;;;;;;28.42;12.45;;;6.40;99.90;;;;;;5050707;28;20059;-73
2022/12/03 04:08:03;;;;;;;27.33;12.93;;;6.40;99.90;;;;;;5043047;28;20053;-74
2022/12/03 04:13:13;;;;;;;27.08;12.77;;;6.40;99.90;;;;;;5047378;28;20068;-73
2022/12/03 04:15:39;;;;;;;26.75;12.20;;;6.40;99.90;;;;;;5049119;28;20788;-73
2022/12/03 04:20:48;;;;;;;27.17;13.20;;;6.40;99.90;;;;;;5041130;28;20047;-74
2022/12/03 04:23:14;;;;;;;23.90;12.25;;;6.40;99.90;;;;;;5044059;28;20041;-73
2022/12/03 04:36:37;;;;;;;25.52;12.15;;;6.30;99.90;;;;;;5050084;28;20449;-75
2022/12/03 04:39:03;;;;;;;28.33;13.75;;;6.30;99.90;;;;;;5038187;28;20025;-74
2022/12/03 04:41:29;;;;;;;26.73;12.18;;;6.30;99.90;;;;;;5054596;28;20398;-74
2022/12/03 04:46:39;;;;;;;31.27;13.05;;;6.20;99.90;;;;;;5045364;28;20048;-74
2022/12/03 04:49:04;;;;;;;28.98;13.80;;;6.20;99.90;;;;;;5038830;28;20037;-74
2022/12/03 04:51:30;;;;;;;29.77;13.95;;;6.20;99.90;;;;;;5034864;28;20100;-74
2022/12/03 04:53:55;;;;;;;30.33;13.52;;;6.20;99.90;;;;;;5031192;28;20037;-74
2022/12/03 04:56:21;;;;;;;36.28;15.30;;;6.20;99.90;;;;;;5036154;28;20041;-74
2022/12/03 04:58:46;;;;;;;34.88;14.80;;;6.20;99.90;;;;;;5043962;28;20078;-74
2022/12/03 05:01:12;;;;;;;31.52;14.45;;;6.20;99.90;;;;;;5044320;28;20564;-74
2022/12/03 05:03:38;;;;;;;40.10;16.05;;;6.20;99.90;;;;;;5046295;28;20021;-74
2022/12/03 05:06:04;;;;;;;35.13;15.38;;;6.20;99.90;;;;;;5049491;28;20488;-73
2022/12/03 05:08:29;;;;;;;36.25;16.05;;;6.20;99.90;;;;;;5039082;28;20060;-74
2022/12/03 05:10:55;;;;;;;38.45;16.33;;;6.20;99.90;;;;;;5044318;28;20029;-74
2022/12/03 05:13:20;;;;;;;36.45;16.92;;;6.20;99.90;;;;;;5042519;28;20067;-75
2022/12/03 05:15:46;;;;;;;32.53;15.55;;;6.20;99.90;;;;;;5041097;28;20029;-74
2022/12/03 05:18:11;;;;;;;37.30;16.65;;;6.20;99.90;;;;;;5044094;28;20051;-75
2022/12/03 05:20:40;;;;;;;33.80;15.57;;;6.20;99.90;;;;;;5036276;28;20032;-74
2022/12/03 05:23:06;;;;;;;35.50;15.88;;;6.20;99.90;;;;;;5039783;28;20033;-74
2022/12/03 05:25:31;;;;;;;37.85;16.00;;;6.20;99.90;;;;;;5046064;28;20554;-74
2022/12/03 05:27:57;;;;;;;32.25;14.43;;;6.20;99.90;;;;;;5045948;28;20063;-74
2022/12/03 05:30:22;;;;;;;32.60;13.90;;;6.20;99.90;;;;;;5030689;28;20029;-74
2022/12/03 05:32:48;;;;;;;32.65;15.07;;;6.20;99.90;;;;;;5047960;28;20090;-73
2022/12/03 05:35:14;;;;;;;30.88;14.48;;;6.20;99.90;;;;;;5038056;28;20058;-74
2022/12/03 05:37:40;;;;;;;32.30;14.95;;;6.10;99.90;;;;;;5046634;28;20120;-74
2022/12/03 05:40:06;;;;;;;28.38;13.40;;;6.10;99.90;;;;;;5033870;28;20033;-74
2022/12/03 05:45:17;;;;;;;31.52;14.27;;;6.10;99.90;;;;;;5048450;28;20060;-74
2022/12/03 05:47:43;;;;;;;31.95;14.30;;;6.10;99.90;;;;;;5041302;28;20036;-75
2022/12/03 05:50:09;;;;;;;36.50;15.43;;;6.10;99.90;;;;;;5047664;28;20029;-74
2022/12/03 05:52:34;;;;;;;32.65;13.63;;;6.10;99.90;;;;;;5051971;28;20572;-74
2022/12/03 05:55:00;;;;;;;29.88;13.60;;;6.10;99.90;;;;;;5038639;28;20140;-74
2022/12/03 05:57:25;;;;;;;32.78;14.98;;;6.00;99.90;;;;;;5042858;28;20115;-75
2022/12/03 05:59:51;;;;;;;36.13;14.85;;;6.10;99.90;;;;;;5038586;28;20102;-74
2022/12/03 06:02:17;;;;;;;38.15;15.55;;;6.10;99.90;;;;;;5041824;28;20026;-74
2022/12/03 06:04:42;;;;;;;40.63;16.27;;;6.10;99.90;;;;;;5041899;28;20064;-75
2022/12/03 06:07:08;;;;;;;35.97;15.07;;;6.10;99.90;;;;;;5029958;28;20067;-74
2022/12/03 06:09:33;;;;;;;32.28;14.60;;;6.10;99.90;;;;;;5040405;28;20033;-75
2022/12/03 06:11:59;;;;;;;33.63;15.30;;;6.10;99.90;;;;;;5040199;28;20037;-74
2022/12/03 06:14:25;;;;;;;34.88;14.85;;;6.10;99.90;;;;;;5036707;28;20506;-74
2022/12/03 06:16:51;;;;;;;34.58;15.82;;;6.00;99.90;;;;;;5035507;28;20037;-75
2022/12/03 06:19:16;;;;;;;36.53;15.18;;;6.00;99.90;;;;;;5038464;28;20128;-75
2022/12/03 06:21:42;;;;;;;34.90;15.15;;;6.00;99.90;;;;;;5031679;28;20033;-75
2022/12/03 06:24:08;;;;;;;37.30;16.02;;;6.00;99.90;;;;;;5040310;28;20025;-75
2022/12/03 06:26:33;;;;;;;28.23;13.05;;;6.00;99.90;;;;;;5037623;28;20117;-74
2022/12/03 06:28:59;;;;;;;37.25;15.52;;;6.00;99.90;;;;;;5034732;28;20041;-75
2022/12/03 06:31:24;;;;;;;34.83;14.45;;;6.10;99.90;;;;;;5039896;28;20045;-74
2022/12/03 06:33:50;;;;;;;37.53;15.32;;;6.10;99.90;;;;;;5038169;28;20040;-75
2022/12/03 06:36:15;;;;;;;36.42;15.63;;;6.10;99.90;;;;;;5040714;28;20037;-74
2022/12/03 06:38:41;;;;;;;32.42;13.88;;;6.10;99.90;;;;;;5036008;28;20032;-75
2022/12/03 06:41:07;;;;;;;35.33;15.63;;;6.10;99.90;;;;;;5040697;28;20108;-74
2022/12/03 06:43:32;;;;;;;38.17;15.38;;;6.10;99.90;;;;;;5053329;28;20040;-74
2022/12/03 06:45:58;;;;;;;39.00;15.18;;;6.10;99.90;;;;;;5045988;28;20107;-74
2022/12/03 06:48:23;;;;;;;35.40;15.88;;;6.10;99.90;;;;;;5042456;28;20064;-75
2022/12/03 06:50:49;;;;;;;32.97;15.35;;;6.10;99.90;;;;;;5037561;28;20054;-74
2022/12/03 06:53:14;;;;;;;35.88;14.68;;;6.10;99.90;;;;;;5035437;28;20120;-74
2022/12/03 06:55:40;;;;;;;32.72;14.38;;;6.10;99.90;;;;;;5039596;28;20033;-76
2022/12/03 06:58:06;;;;;;;34.88;15.60;;;6.10;99.90;;;;;;5032772;28;20056;-76
2022/12/03 07:00:31;;;;;;;35.08;15.05;;;6.10;99.90;;;;;;5037242;28;20025;-75
2022/12/03 07:02:57;;;;;;;29.35;13.75;;;6.10;99.90;;;;;;5047356;28;20021;-76
2022/12/03 07:05:23;;;;;;;31.60;13.02;;;6.10;99.90;;;;;;5033542;28;21548;-76
2022/12/03 07:07:50;;;;;;;30.75;14.45;;;6.10;99.90;;;;;;5030117;28;20033;-75
2022/12/03 07:10:17;;;;;;;28.98;13.13;;;6.10;99.90;;;;;;5038239;28;20018;-74
2022/12/03 07:12:43;;;;;;;30.13;13.25;;;6.10;99.90;;;;;;5027854;28;20029;-75
2022/12/03 07:15:08;;;;;;;31.63;13.88;;;6.10;99.90;;;;;;5026598;28;20036;-75
2022/12/03 07:17:34;;;;;;;29.52;12.23;;;6.10;99.90;;;;;;5033387;28;20778;-75
2022/12/03 07:20:00;;;;;;;29.65;12.68;;;6.10;99.90;;;;;;5042809;28;20029;-75
2022/12/03 07:22:25;;;;;;;32.80;14.30;;;6.10;99.90;;;;;;5040581;28;20040;-76
2022/12/03 07:24:51;;;;;;;27.80;11.82;;;6.10;99.90;;;;;;5041593;28;20041;-75
2022/12/03 07:27:16;;;;;;;28.27;13.15;;;6.00;99.90;;;;;;5042378;28;20428;-76
2022/12/03 07:29:42;;;;;;;28.00;13.07;;;6.10;99.90;;;;;;5038618;28;20033;-75
2022/12/03 07:32:07;;;;;;;28.55;12.57;;;6.10;99.90;;;;;;5040824;28;20021;-75
2022/12/03 07:34:33;;;;;;;24.33;11.75;;;6.10;99.90;;;;;;5045494;28;20032;-75
2022/12/03 07:36:59;;;;;;;25.77;11.85;;;6.20;99.90;;;;;;5041587;28;20029;-75
2022/12/03 07:39:24;;;;;;;29.00;11.82;;;6.10;99.90;;;;;;5031365;28;20103;-73
2022/12/03 07:41:50;;;;;;;29.10;12.77;;;6.10;99.90;;;;;;5043372;28;20040;-75
2022/12/03 07:44:15;;;;;;;27.52;12.15;;;6.20;99.90;;;;;;5045031;28;20047;-74
2022/12/03 07:46:41;;;;;;;31.50;13.18;;;6.10;99.90;;;;;;5044635;28;20043;-78
2022/12/03 07:49:07;;;;;;;26.52;11.10;;;6.10;99.90;;;;;;5039881;28;20055;-76
2022/12/03 07:51:33;;;;;;;33.08;11.90;;;6.20;99.90;;;;;;5040693;28;20029;-77
2022/12/03 07:53:58;;;;;;;26.85;11.25;;;6.20;99.90;;;;;;5041634;28;20539;-74
2022/12/03 07:56:24;;;;;;;30.45;12.27;;;6.20;99.90;;;;;;5036631;28;20099;-75
2022/12/03 07:58:49;;;;;;;31.52;13.15;;;6.20;99.90;;;;;;5046245;28;20398;-76
2022/12/03 08:01:15;;;;;;;27.92;13.32;;;6.20;99.90;;;;;;5044060;28;20085;-75
2022/12/03 08:03:41;;;;;;;33.33;12.77;;;6.20;99.90;;;;;;5044600;28;20040;-76
2022/12/03 08:06:08;;;;;;;31.75;12.80;;;6.20;99.90;;;;;;5050172;28;20052;-76
2022/12/03 08:08:33;;;;;;;32.03;13.38;;;6.20;99.90;;;;;;5042024;28;20037;-75
2022/12/03 08:11:00;;;;;;;26.85;12.18;;;6.20;99.90;;;;;;5047278;28;20447;-75
2022/12/03 08:13:26;;;;;;;29.98;12.63;;;6.20;99.90;;;;;;5038497;28;20162;-76
2022/12/03 08:15:55;;;;;;;30.08;12.95;;;6.20;99.90;;;;;;5060341;28;20032;-75
2022/12/03 08:18:21;;;;;;;27.17;11.60;;;6.30;99.90;;;;;;5054786;28;20905;-77
2022/12/03 08:20:49;;;;;;;29.20;13.05;;;6.30;99.90;;;;;;5041779;28;20033;-77
2022/12/03 08:23:20;;;;;;;27.88;12.43;;;6.20;99.90;;;;;;5048658;28;20589;-75
2022/12/03 08:25:47;;;;;;;31.23;13.35;;;6.30;99.90;;;;;;5046982;28;20024;-75
2022/12/03 08:28:22;;;;;;;34.88;13.15;;;6.30;99.90;;;;;;5046304;28;20479;-76
2022/12/03 08:31:18;;;;;;;26.88;11.80;;;6.30;99.90;;;;;;5048543;28;20403;-74
2022/12/03 08:33:46;;;;;;;33.40;12.75;;;6.30;99.90;;;;;;5041898;28;20041;-75
2022/12/03 08:36:13;;;;;;;26.02;11.98;;;6.30;99.90;;;;;;5036057;28;20442;-75
2022/12/03 08:38:39;;;;;;;26.70;11.30;;;6.30;99.90;;;;;;5041111;28;20024;-75
2022/12/03 08:41:15;;;;;;;30.77;12.68;;;6.30;99.90;;;;;;5039328;28;20040;-75
2022/12/03 08:43:42;;;;;;;26.05;12.13;;;6.40;99.90;;;;;;5043486;28;20039;-75
2022/12/03 08:46:17;;;;;;;26.75;12.00;;;6.40;99.90;;;;;;5039978;28;20036;-75
2022/12/03 08:48:44;;;;;;;27.48;11.95;;;6.40;99.90;;;;;;5058707;28;20410;-75
2022/12/03 08:51:18;;;;;;;23.15;11.70;;;6.40;99.90;;;;;;5044955;28;20025;-76
2022/12/03 08:53:49;;;;;;;21.92;10.30;;;6.40;99.90;;;;;;5042965;28;20086;-76
2022/12/03 08:56:21;;;;;;;24.23;10.90;;;6.40;99.90;;;;;;5040241;28;20048;-74
2022/12/03 08:58:57;;;;;;;24.90;10.95;;;6.40;99.90;;;;;;5032262;28;20122;-75
2022/12/03 09:01:52;;;;;;;25.10;12.20;;;6.50;99.90;;;;;;5037538;28;20028;-75
2022/12/03 09:04:51;;;;;;;24.48;11.13;;;6.50;99.90;;;;;;5045814;28;20511;-76
2022/12/03 09:07:17;;;;;;;24.02;11.48;;;6.50;99.90;;;;;;5020318;28;20041;-75
2022/12/03 09:09:42;;;;;;;24.55;11.35;;;6.50;99.90;;;;;;5052236;28;20094;-75
2022/12/03 09:12:08;;;;;;;24.67;10.35;;;6.60;99.90;;;;;;5039041;28;20041;-75
2022/12/03 09:14:33;;;;;;;23.30;10.60;;;6.50;99.90;;;;;;5043921;28;20033;-74
2022/12/03 09:16:59;;;;;;;21.90;10.85;;;6.60;99.90;;;;;;5035130;28;20491;-75
2022/12/03 09:19:26;;;;;;;23.98;11.13;;;6.60;99.90;;;;;;5036208;28;20102;-75
2022/12/03 09:21:53;;;;;;;19.48;9.82;;;6.60;99.90;;;;;;5030989;28;20033;-75
2022/12/03 09:24:19;;;;;;;22.00;10.88;;;6.60;99.90;;;;;;5046124;28;20139;-75
2022/12/03 09:26:45;;;;;;;22.58;9.75;;;6.60;99.90;;;;;;5040974;28;20033;-75
2022/12/03 09:29:10;;;;;;;25.30;11.00;;;6.60;99.90;;;;;;5042377;28;20545;-74
2022/12/03 09:31:37;;;;;;;22.02;10.80;;;6.60;99.90;;;;;;5034216;28;20029;-75
2022/12/03 09:34:04;;;;;;;24.00;10.52;;;6.60;99.90;;;;;;5036235;28;20025;-75
2022/12/03 09:36:30;;;;;;;22.25;10.30;;;6.70;99.90;;;;;;5045258;28;20032;-74
2022/12/03 09:38:56;;;;;;;21.60;9.98;;;6.70;99.90;;;;;;5033543;28;20142;-75
2022/12/03 09:41:23;;;;;;;22.38;10.35;;;6.70;99.90;;;;;;5042639;28;20032;-74
2022/12/03 09:43:50;;;;;;;20.13;9.80;;;6.70;99.90;;;;;;5044224;28;20475;-76
2022/12/03 09:46:16;;;;;;;23.05;10.68;;;6.70;99.90;;;;;;5032334;28;20033;-75
2022/12/03 09:48:42;;;;;;;26.02;10.25;;;6.80;99.90;;;;;;5035118;28;20026;-75
2022/12/03 09:51:09;;;;;;;20.08;9.80;;;6.80;99.90;;;;;;5048778;28;20493;-75
2022/12/03 09:53:36;;;;;;;21.95;10.02;;;6.80;99.90;;;;;;5038825;28;20071;-74
2022/12/03 09:56:02;;;;;;;22.13;9.80;;;6.80;99.90;;;;;;5034822;28;20033;-75
2022/12/03 09:58:28;;;;;;;17.58;9.60;;;6.90;99.90;;;;;;5042125;28;20063;-75
2022/12/03 10:00:55;;;;;;;20.90;10.02;;;6.80;99.90;;;;;;5046605;28;20049;-75
2022/12/03 10:03:28;;;;;;;20.27;9.85;;;6.90;99.90;;;;;;5041462;28;20040;-75
2022/12/03 10:05:54;;;;;;;18.38;9.25;;;6.90;99.90;;;;;;5044438;28;20033;-74
2022/12/03 10:08:22;;;;;;;22.33;10.25;;;7.00;99.90;;;;;;5042182;28;20539;-74
2022/12/03 10:10:51;;;;;;;19.40;10.32;;;7.00;99.90;;;;;;5046286;28;20076;-75
2022/12/03 10:13:27;;;;;;;22.92;10.77;;;7.00;99.90;;;;;;5044343;28;20028;-74
2022/12/03 10:15:56;;;;;;;22.67;10.90;;;7.00;99.90;;;;;;5043018;28;20510;-74
2022/12/03 10:18:24;;;;;;;19.00;10.95;;;7.00;99.90;;;;;;5043347;28;20527;-73
2022/12/03 10:20:51;;;;;;;19.52;9.85;;;7.00;99.90;;;;;;5043406;28;20387;-75
2022/12/03 10:23:28;;;;;;;20.17;10.38;;;7.10;99.90;;;;;;5045134;28;20068;-75
2022/12/03 10:25:59;;;;;;;17.20;8.98;;;7.10;99.90;;;;;;5044903;28;20033;-75
2022/12/03 10:28:36;;;;;;;18.08;10.00;;;7.10;99.90;;;;;;5041841;28;20033;-74
2022/12/03 10:31:05;;;;;;;30.40;11.18;;;7.10;99.90;;;;;;5042649;28;20033;-74
2022/12/03 10:33:36;;;;;;;22.90;12.05;;;7.10;99.90;;;;;;5039931;28;20129;-75
2022/12/03 10:36:15;;;;;;;21.75;11.10;;;7.10;99.90;;;;;;5039980;28;20033;-75
2022/12/03 10:38:42;;;;;;;19.55;10.02;;;7.10;99.90;;;;;;5056494;28;20037;-75
2022/12/03 10:41:25;;;;;;;21.88;11.27;;;7.10;99.90;;;;;;5037402;28;20033;-74
2022/12/03 10:43:51;;;;;;;19.17;10.48;;;7.10;99.90;;;;;;5040622;28;20029;-75
2022/12/03 10:46:19;;;;;;;23.33;10.35;;;7.10;99.90;;;;;;5045065;28;20737;-75
2022/12/03 10:49:18;;;;;;;17.60;10.35;;;7.10;99.90;;;;;;5043093;28;20075;-75
2022/12/03 10:51:46;;;;;;;21.48;10.68;;;7.10;99.90;;;;;;5017743;28;20062;-75
2022/12/03 10:54:23;;;;;;;18.88;10.02;;;7.10;99.90;;;;;;5040226;28;20502;-76
2022/12/03 10:56:50;;;;;;;23.35;11.23;;;7.10;99.90;;;;;;5042990;28;20071;-74
2022/12/03 10:59:23;;;;;;;17.77;9.68;;;7.20;99.90;;;;;;5039211;28;20040;-75
2022/12/03 11:01:49;;;;;;;19.23;10.55;;;7.10;99.90;;;;;;5042124;28;20488;-75
2022/12/03 11:04:27;;;;;;;23.13;11.82;;;7.10;99.90;;;;;;5045277;28;20037;-75
2022/12/03 11:06:54;;;;;;;24.90;11.25;;;7.10;99.90;;;;;;5043470;28;20116;-75
2022/12/03 11:09:23;;;;;;;23.58;12.27;;;7.10;99.90;;;;;;5042907;28;20035;-74
2022/12/03 11:11:49;;;;;;;23.02;12.48;;;7.10;99.90;;;;;;5035501;28;20034;-74
2022/12/03 11:14:50;;;;;;;23.17;11.75;;;7.10;99.90;;;;;;5045882;28;20072;-75
2022/12/03 11:17:39;;;;;;;19.73;11.35;;;7.10;99.90;;;;;;5041070;28;20037;-75
2022/12/03 11:20:23;;;;;;;23.77;11.15;;;7.10;99.90;;;;;;5045885;28;20032;-73
2022/12/03 11:22:56;;;;;;;23.80;12.82;;;7.10;99.90;;;;;;5031039;28;20033;-74
2022/12/03 11:25:24;;;;;;;23.33;11.73;;;7.20;99.90;;;;;;5039491;28;20040;-75
2022/12/03 11:28:14;;;;;;;25.92;12.98;;;7.20;99.90;;;;;;5029206;28;20029;-74
2022/12/03 11:30:48;;;;;;;22.95;11.85;;;7.20;99.90;;;;;;5033634;28;20468;-73
2022/12/03 11:33:23;;;;;;;25.25;13.15;;;7.20;99.90;;;;;;5053031;28;20071;-74
2022/12/03 11:36:04;;;;;;;21.73;12.07;;;7.20;99.90;;;;;;5058272;28;20033;-73
2022/12/03 11:38:44;;;;;;;25.42;12.70;;;7.20;99.90;;;;;;5046052;28;20666;-73
2022/12/03 11:41:16;;;;;;;25.92;12.52;;;7.20;99.90;;;;;;5059456;28;20029;-73
2022/12/03 11:43:51;;;;;;;22.02;11.77;;;7.20;99.90;;;;;;5062894;28;20530;-74
2022/12/03 11:46:43;;;;;;;21.98;12.18;;;7.20;99.90;;;;;;5045618;28;20433;-73
2022/12/03 11:49:19;;;;;;;24.83;12.93;;;7.20;99.90;;;;;;5040780;28;20231;-74
2022/12/03 11:51:45;;;;;;;29.40;14.13;;;7.20;99.90;;;;;;5063744;28;20031;-74
2022/12/03 11:54:15;;;;;;;24.15;12.10;;;7.20;99.90;;;;;;5061842;28;20394;-75
2022/12/03 11:56:47;;;;;;;28.00;13.73;;;7.20;99.90;;;;;;5063892;28;20029;-74
2022/12/03 11:59:14;;;;;;;25.40;14.50;;;7.10;99.90;;;;;;5056376;28;20039;-74
2022/12/03 12:01:41;;;;;;;30.00;14.95;;;7.20;99.90;;;;;;5037410;28;20053;-74
2022/12/03 12:04:36;;;;;;;27.70;15.25;;;7.20;99.90;;;;;;5047515;28;20035;-74
2022/12/03 12:07:02;;;;;;;27.63;13.98;;;7.20;99.90;;;;;;5043462;28;20055;-74
2022/12/03 12:09:50;;;;;;;30.15;15.65;;;7.20;99.90;;;;;;5030662;28;20039;-74
2022/12/03 12:12:26;;;;;;;30.92;15.15;;;7.20;99.90;;;;;;5035381;28;20425;-74
2022/12/03 12:14:52;;;;;;;30.05;14.98;;;7.20;99.90;;;;;;5042545;28;20037;-75
2022/12/03 12:17:35;;;;;;;28.85;14.82;;;7.20;99.90;;;;;;5042368;28;20714;-74
2022/12/03 12:20:23;;;;;;;27.40;15.10;;;7.20;99.90;;;;;;5040163;28;20108;-75
2022/12/03 12:22:50;;;;;;;27.70;14.75;;;7.20;99.90;;;;;;5035834;28;20131;-74
2022/12/03 12:25:40;;;;;;;30.70;15.32;;;7.20;99.90;;;;;;5044055;28;20036;-73
2022/12/03 12:28:06;;;;;;;27.80;14.70;;;7.20;99.90;;;;;;5042888;28;20025;-73
2022/12/03 12:30:32;;;;;;;29.73;16.05;;;7.20;99.90;;;;;;5048916;28;20115;-74
2022/12/03 12:32:57;;;;;;;33.50;17.02;;;7.20;99.90;;;;;;5044294;28;20121;-73
2022/12/03 12:35:25;;;;;;;36.30;17.08;;;7.20;99.90;;;;;;5041201;28;20068;-73
2022/12/03 12:38:06;;;;;;;31.88;16.73;;;7.10;99.90;;;;;;5045958;28;20037;-75
2022/12/03 12:40:35;;;;;;;34.30;18.60;;;7.10;99.90;;;;;;5039834;28;20065;-74
2022/12/03 12:43:00;;;;;;;35.45;18.75;;;7.10;99.90;;;;;;5040932;28;20549;-74
2022/12/03 12:45:28;;;;;;;36.08;18.15;;;7.00;99.90;;;;;;5045224;28;20029;-74
2022/12/03 12:48:18;;;;;;;38.50;17.33;;;7.00;99.90;;;;;;5045575;28;20033;-74
2022/12/03 12:50:46;;;;;;;33.53;17.83;;;6.90;99.90;;;;;;5043062;28;20036;-74
2022/12/03 12:53:23;;;;;;;36.38;17.70;;;6.90;99.90;;;;;;5044216;28;20040;-74
2022/12/03 12:55:57;;;;;;;34.00;17.40;;;6.90;99.90;;;;;;5042029;28;20078;-74
2022/12/03 12:58:24;;;;;;;34.17;17.23;;;6.90;99.90;;;;;;5041020;28;20024;-75
2022/12/03 13:00:56;;;;;;;39.53;18.98;;;6.90;99.90;;;;;;5044200;28;20033;-75
2022/12/03 13:03:27;;;;;;;33.60;17.80;;;6.90;99.90;;;;;;5043939;28;20036;-73
2022/12/03 13:05:55;;;;;;;37.67;18.30;;;6.90;99.90;;;;;;5047965;28;20060;-74
2022/12/03 13:08:36;;;;;;;32.67;17.92;;;6.90;99.90;;;;;;5041147;28;20044;-73
2022/12/03 13:11:02;;;;;;;35.83;17.13;;;6.90;99.90;;;;;;5047003;28;20029;-73
2022/12/03 13:13:33;;;;;;;38.30;18.95;;;6.90;99.90;;;;;;5044926;28;20067;-74